Time;durP1;ratioP1;P1;durP2;ratioP2;P2;SDS_P1;SDS_P2;PMS_P1;PMS_P2;Temp;Humidity;BMP_temperature;BMP_pressure;BME280_temperature;BME280_humidity;BME280_pressure;Samples;Min_cycle;Max_cycle;Signal;HPM_P1;HPM_P2
2022/04/17 00:00:31;;;;;;;4.95;2.85;;;;;;;;;;5084977;28;20081;-52
2022/04/17 00:02:57;;;;;;;4.88;2.67;;;;;;;;;;5082637;28;20100;-52
2022/04/17 00:05:23;;;;;;;5.32;2.50;;;;;;;;;;5088335;28;20054;-54
2022/04/17 00:07:49;;;;;;;8.50;3.15;;;;;;;;;;5090922;28;20024;-53
2022/04/17 00:10:16;;;;;;;5.55;2.83;;;;;;;;;;5088692;28;20408;-54
2022/04/17 00:12:42;;;;;;;4.20;2.63;;;;;;;;;;5083496;28;20024;-49
2022/04/17 00:15:12;;;;;;;4.53;2.50;;;;;;;;;;5093436;28;20032;-54
2022/04/17 00:17:42;;;;;;;4.22;2.38;;;;;;;;;;5078970;28;20091;-49
2022/04/17 00:20:09;;;;;;;4.45;2.58;;;;;;;;;;5078786;28;20054;-51
2022/04/17 00:22:35;;;;;;;4.05;2.70;;;;;;;;;;5084714;28;20484;-51
2022/04/17 00:25:01;;;;;;;4.40;2.60;;;;;;;;;;5067909;28;20037;-51
2022/04/17 00:27:27;;;;;;;5.10;2.70;;;;;;;;;;5068486;28;20078;-49
2022/04/17 00:29:53;;;;;;;4.03;2.53;;;;;;;;;;5068791;28;20021;-49
2022/04/17 00:32:19;;;;;;;4.75;2.40;;;;;;;;;;5092556;28;20027;-49
2022/04/17 00:34:45;;;;;;;4.07;2.22;;;;;;;;;;5093035;28;20094;-51
2022/04/17 00:37:11;;;;;;;5.55;2.70;;;;;;;;;;5080751;28;20031;-53
2022/04/17 00:39:37;;;;;;;6.15;2.92;;;;;;;;;;5084105;28;20021;-49
2022/04/17 00:42:06;;;;;;;6.22;2.80;;;;;;;;;;5073800;28;20047;-50
2022/04/17 00:44:32;;;;;;;5.45;3.10;;;;;;;;;;5074923;28;20021;-50
2022/04/17 00:46:58;;;;;;;5.70;3.05;;;;;;;;;;5084335;28;20093;-52
2022/04/17 00:49:24;;;;;;;5.03;2.72;;;;;;;;;;5084849;28;20058;-53
2022/04/17 00:51:51;;;;;;;7.32;3.22;;;;;;;;;;5069503;28;20430;-52
2022/04/17 00:54:19;;;;;;;5.63;2.75;;;;;;;;;;5071089;28;20044;-53
2022/04/17 00:56:47;;;;;;;5.50;2.35;;;;;;;;;;5056868;28;20020;-54
2022/04/17 00:59:13;;;;;;;5.35;2.88;;;;;;;;;;5080188;28;20035;-53
2022/04/17 01:01:40;;;;;;;6.30;2.95;;;;;;;;;;5073001;28;20041;-52
2022/04/17 01:04:07;;;;;;;6.57;2.95;;;;;;;;;;5066811;28;20032;-50
2022/04/17 01:06:33;;;;;;;4.50;2.90;;;;;;;;;;5076267;28;20040;-51
2022/04/17 01:09:00;;;;;;;4.60;2.90;;;;;;;;;;5079181;28;20028;-50
2022/04/17 01:11:26;;;;;;;5.40;2.60;;;;;;;;;;5066842;28;20483;-50
2022/04/17 01:13:52;;;;;;;4.82;2.60;;;;;;;;;;5085695;28;20025;-50
2022/04/17 01:16:19;;;;;;;4.18;2.95;;;;;;;;;;5069765;28;20020;-53
2022/04/17 01:18:55;;;;;;;5.00;3.20;;;;;;;;;;5060952;28;20094;-50
2022/04/17 01:21:21;;;;;;;4.97;3.30;;;;;;;;;;5070480;28;20114;-52
2022/04/17 01:29:18;;;;;;;6.07;2.50;;;;;;;;;;5069138;28;20120;-50
2022/04/17 01:31:44;;;;;;;4.43;2.80;;;;;;;;;;5078355;28;20020;-49
2022/04/17 01:34:10;;;;;;;6.05;3.00;;;;;;;;;;5072786;28;20020;-49
2022/04/17 01:36:36;;;;;;;4.18;2.72;;;;;;;;;;5062192;28;20074;-51
2022/04/17 01:39:02;;;;;;;5.72;2.67;;;;;;;;;;5058228;28;20071;-50
2022/04/17 01:41:28;;;;;;;4.72;2.65;;;;;;;;;;5072484;28;20391;-51
2022/04/17 01:43:54;;;;;;;5.35;2.97;;;;;;;;;;5077686;28;20105;-50
2022/04/17 01:46:22;;;;;;;7.78;2.80;;;;;;;;;;5071974;28;20031;-51
2022/04/17 01:48:48;;;;;;;5.10;3.03;;;;;;;;;;5071348;28;20012;-50
2022/04/17 01:51:14;;;;;;;6.38;3.00;;;;;;;;;;5068648;28;20503;-52
2022/04/17 01:53:40;;;;;;;6.63;3.03;;;;;;;;;;5073012;28;20388;-50
2022/04/17 01:56:06;;;;;;;4.72;2.88;;;;;;;;;;5066677;28;20508;-50
2022/04/17 01:58:32;;;;;;;5.05;3.08;;;;;;;;;;5070329;28;20024;-51
2022/04/17 02:00:58;;;;;;;6.70;3.05;;;;;;;;;;5066748;28;20028;-50
2022/04/17 02:03:24;;;;;;;5.78;2.75;;;;;;;;;;5071470;28;20036;-52
2022/04/17 02:05:50;;;;;;;6.57;3.40;;;;;;;;;;5084046;28;20031;-51
2022/04/17 02:08:16;;;;;;;5.65;3.20;;;;;;;;;;5080739;28;20085;-49
2022/04/17 02:10:42;;;;;;;5.28;3.33;;;;;;;;;;5070079;28;20028;-52
2022/04/17 02:13:08;;;;;;;8.07;3.38;;;;;;;;;;5071821;28;20102;-49
2022/04/17 02:15:34;;;;;;;5.07;2.78;;;;;;;;;;5069360;28;20025;-49
2022/04/17 02:18:00;;;;;;;6.55;3.17;;;;;;;;;;5062579;28;20377;-51
2022/04/17 02:20:26;;;;;;;4.63;2.72;;;;;;;;;;5068663;28;20042;-52
2022/04/17 02:22:52;;;;;;;4.15;2.90;;;;;;;;;;5071659;28;20487;-49
2022/04/17 02:25:18;;;;;;;5.55;2.97;;;;;;;;;;5065436;28;20063;-50
2022/04/17 02:27:44;;;;;;;5.72;3.10;;;;;;;;;;5064222;28;20039;-49
2022/04/17 02:30:10;;;;;;;5.53;3.47;;;;;;;;;;5062388;28;20032;-49
2022/04/17 02:32:36;;;;;;;4.93;3.13;;;;;;;;;;5073973;28;20028;-52
2022/04/17 02:35:03;;;;;;;6.07;3.05;;;;;;;;;;5048554;28;20028;-52
2022/04/17 02:37:29;;;;;;;6.40;3.33;;;;;;;;;;5066046;28;20104;-53
2022/04/17 02:39:57;;;;;;;5.82;2.95;;;;;;;;;;5065290;28;20033;-51
2022/04/17 02:42:23;;;;;;;6.00;3.28;;;;;;;;;;5083813;28;20540;-50
2022/04/17 02:44:48;;;;;;;4.70;2.78;;;;;;;;;;5077648;28;20020;-49
2022/04/17 02:49:59;;;;;;;6.00;3.28;;;;;;;;;;5075098;28;20106;-49
2022/04/17 02:52:25;;;;;;;6.05;3.30;;;;;;;;;;5065055;28;20024;-50
2022/04/17 02:54:53;;;;;;;5.20;2.78;;;;;;;;;;5055723;28;20468;-50
2022/04/17 02:57:20;;;;;;;4.25;2.90;;;;;;;;;;5064164;28;20021;-48
2022/04/17 02:59:46;;;;;;;5.55;3.17;;;;;;;;;;5068603;28;20503;-50
2022/04/17 03:07:41;;;;;;;5.68;3.20;;;;;;;;;;5082897;28;20098;-52
2022/04/17 03:10:07;;;;;;;4.65;2.83;;;;;;;;;;5071527;28;20514;-49
2022/04/17 03:12:36;;;;;;;5.13;3.28;;;;;;;;;;5073411;28;20066;-51
2022/04/17 03:15:02;;;;;;;4.25;3.08;;;;;;;;;;5069681;28;20082;-52
2022/04/17 03:17:28;;;;;;;6.18;3.10;;;;;;;;;;5077235;28;20431;-53
2022/04/17 03:19:54;;;;;;;10.95;5.07;;;;;;;;;;5055944;28;20016;-51
2022/04/17 03:22:23;;;;;;;13.18;5.40;;;;;;;;;;5077884;28;20154;-51
2022/04/17 03:24:49;;;;;;;9.88;5.43;;;;;;;;;;5077211;28;20024;-53
2022/04/17 03:27:15;;;;;;;6.55;3.22;;;;;;;;;;5068727;28;20793;-49
2022/04/17 03:29:41;;;;;;;9.52;3.70;;;;;;;;;;5067615;28;20035;-49
2022/04/17 03:32:07;;;;;;;5.97;3.38;;;;;;;;;;5074695;28;20036;-49
2022/04/17 03:34:33;;;;;;;6.35;3.40;;;;;;;;;;5066180;28;20091;-49
2022/04/17 03:36:59;;;;;;;5.95;3.40;;;;;;;;;;5070223;28;20434;-49
2022/04/17 03:39:25;;;;;;;5.97;3.38;;;;;;;;;;5087392;28;20044;-49
2022/04/17 03:41:52;;;;;;;8.25;4.32;;;;;;;;;;5074285;28;20119;-49
2022/04/17 03:44:19;;;;;;;7.25;3.95;;;;;;;;;;5080279;28;20036;-49
2022/04/17 03:46:45;;;;;;;8.30;3.83;;;;;;;;;;5085713;28;20040;-50
2022/04/17 03:49:11;;;;;;;8.60;4.05;;;;;;;;;;5085901;28;20032;-49
2022/04/17 03:51:37;;;;;;;11.05;4.55;;;;;;;;;;5065396;28;20111;-50
2022/04/17 03:54:03;;;;;;;8.32;5.15;;;;;;;;;;5072577;28;20025;-52
2022/04/17 03:56:29;;;;;;;6.20;4.40;;;;;;;;;;5071480;28;20107;-51
2022/04/17 03:58:55;;;;;;;7.00;4.20;;;;;;;;;;5066980;28;20017;-50
2022/04/17 04:01:21;;;;;;;6.70;4.30;;;;;;;;;;5068881;28;20056;-50
2022/04/17 04:03:47;;;;;;;7.22;4.20;;;;;;;;;;5071276;28;20025;-51
2022/04/17 04:06:13;;;;;;;9.15;4.75;;;;;;;;;;5084970;28;20016;-50
2022/04/17 04:08:39;;;;;;;6.15;4.22;;;;;;;;;;5060068;28;20108;-48
2022/04/17 04:11:05;;;;;;;7.28;4.53;;;;;;;;;;5062133;28;20029;-49
2022/04/17 04:13:35;;;;;;;6.82;3.75;;;;;;;;;;5080776;28;20036;-51
2022/04/17 04:16:01;;;;;;;7.13;4.18;;;;;;;;;;5075233;28;20020;-49
2022/04/17 04:18:27;;;;;;;9.60;4.63;;;;;;;;;;5069700;28;20376;-50
2022/04/17 04:20:54;;;;;;;5.32;3.78;;;;;;;;;;5058262;28;20029;-48
2022/04/17 04:23:21;;;;;;;8.93;4.22;;;;;;;;;;5082056;28;20020;-52
2022/04/17 04:25:47;;;;;;;7.53;4.32;;;;;;;;;;5078357;28;20039;-51
2022/04/17 04:30:57;;;;;;;7.32;4.15;;;;;;;;;;5076259;28;20043;-48
2022/04/17 04:33:23;;;;;;;5.82;4.03;;;;;;;;;;5072224;28;20033;-49
2022/04/17 04:35:50;;;;;;;8.15;4.25;;;;;;;;;;5087165;28;20030;-50
2022/04/17 04:38:16;;;;;;;9.07;4.25;;;;;;;;;;5081508;28;20030;-48
2022/04/17 04:40:42;;;;;;;7.43;4.18;;;;;;;;;;5076187;28;20404;-51
2022/04/17 04:43:08;;;;;;;6.63;4.00;;;;;;;;;;5076134;28;20131;-52
2022/04/17 04:51:03;;;;;;;4.53;3.53;;;;;;;;;;5068010;28;20080;-52
2022/04/17 04:53:29;;;;;;;7.50;4.13;;;;;;;;;;5045875;28;20036;-50
2022/04/17 04:55:55;;;;;;;9.07;4.82;;;;;;;;;;5067447;28;20024;-50
2022/04/17 04:58:21;;;;;;;8.02;4.40;;;;;;;;;;5062677;28;20443;-49
2022/04/17 05:00:47;;;;;;;6.80;4.53;;;;;;;;;;5066401;28;20032;-52
2022/04/17 05:03:13;;;;;;;7.85;4.55;;;;;;;;;;5071291;28;20020;-49
2022/04/17 05:05:39;;;;;;;7.28;4.65;;;;;;;;;;5069327;28;20094;-52
2022/04/17 05:08:05;;;;;;;8.70;4.53;;;;;;;;;;5074093;28;20035;-48
2022/04/17 05:10:31;;;;;;;6.45;4.65;;;;;;;;;;5069999;28;20085;-49
2022/04/17 05:12:57;;;;;;;7.30;3.92;;;;;;;;;;5082180;28;20055;-49
2022/04/17 05:15:23;;;;;;;9.15;4.22;;;;;;;;;;5079084;28;20451;-49
2022/04/17 05:17:49;;;;;;;10.73;5.20;;;;;;;;;;5070057;28;20029;-49
2022/04/17 05:20:15;;;;;;;8.40;5.07;;;;;;;;;;5067827;28;20090;-49
2022/04/17 05:22:43;;;;;;;10.38;5.07;;;;;;;;;;5071657;28;20032;-49
2022/04/17 05:25:09;;;;;;;7.45;4.85;;;;;;;;;;5076591;28;20040;-49
2022/04/17 05:27:35;;;;;;;8.15;4.65;;;;;;;;;;5070299;28;20037;-49
2022/04/17 05:30:01;;;;;;;6.55;4.50;;;;;;;;;;5073772;28;20032;-49
2022/04/17 05:32:27;;;;;;;8.18;4.40;;;;;;;;;;5082120;28;20029;-49
2022/04/17 05:34:53;;;;;;;9.25;4.78;;;;;;;;;;5075057;28;20028;-49
2022/04/17 05:37:19;;;;;;;7.10;4.22;;;;;;;;;;5073647;28;20031;-50
2022/04/17 05:39:45;;;;;;;9.30;4.28;;;;;;;;;;5077391;28;20532;-52
2022/04/17 05:42:12;;;;;;;7.78;4.82;;;;;;;;;;5061086;28;20397;-50
2022/04/17 05:44:38;;;;;;;6.65;4.18;;;;;;;;;;5069846;28;20028;-51
2022/04/17 05:47:04;;;;;;;11.15;5.25;;;;;;;;;;5070794;28;20035;-49
2022/04/17 05:49:30;;;;;;;9.65;4.63;;;;;;;;;;5072465;28;20044;-50
2022/04/17 05:51:59;;;;;;;8.15;4.57;;;;;;;;;;5059421;28;20035;-53
2022/04/17 05:54:26;;;;;;;8.35;5.05;;;;;;;;;;5051538;28;20443;-52
2022/04/17 05:56:52;;;;;;;7.43;4.65;;;;;;;;;;5067999;28;20025;-52
2022/04/17 05:59:18;;;;;;;6.57;4.30;;;;;;;;;;5074588;28;20476;-49
2022/04/17 06:01:44;;;;;;;8.80;4.85;;;;;;;;;;5069831;28;20024;-53
2022/04/17 06:04:10;;;;;;;6.28;4.40;;;;;;;;;;5069715;28;20467;-51
2022/04/17 06:06:36;;;;;;;7.03;4.68;;;;;;;;;;5069180;28;20496;-51
2022/04/17 06:09:02;;;;;;;7.75;4.70;;;;;;;;;;5069590;28;20051;-50
2022/04/17 06:11:28;;;;;;;8.10;4.65;;;;;;;;;;5072440;28;20032;-50
2022/04/17 06:13:55;;;;;;;7.68;4.38;;;;;;;;;;5058343;28;20025;-52
2022/04/17 06:16:21;;;;;;;7.10;4.20;;;;;;;;;;5072274;28;20032;-53
2022/04/17 06:18:47;;;;;;;6.72;4.28;;;;;;;;;;5062244;28;20528;-52
2022/04/17 06:21:13;;;;;;;8.38;4.93;;;;;;;;;;5071072;28;20124;-51
2022/04/17 06:23:40;;;;;;;8.60;4.68;;;;;;;;;;5074966;28;20078;-53
2022/04/17 06:26:08;;;;;;;7.82;4.25;;;;;;;;;;5074207;28;20171;-50
2022/04/17 06:28:34;;;;;;;6.78;4.07;;;;;;;;;;5079164;28;20033;-54
2022/04/17 06:31:00;;;;;;;10.18;4.40;;;;;;;;;;5074465;28;20047;-54
2022/04/17 06:33:26;;;;;;;8.30;3.88;;;;;;;;;;5064714;28;20099;-52
2022/04/17 06:35:52;;;;;;;6.45;2.90;;;;;;;;;;5080247;28;20077;-52
2022/04/17 06:38:18;;;;;;;6.55;3.42;;;;;;;;;;5079499;28;20031;-53
2022/04/17 06:40:44;;;;;;;5.88;3.17;;;;;;;;;;5072104;28;20024;-51
2022/04/17 06:43:10;;;;;;;5.45;2.97;;;;;;;;;;5059854;28;20029;-51
2022/04/17 06:45:37;;;;;;;4.45;2.67;;;;;;;;;;5067066;28;20035;-50
2022/04/17 06:48:16;;;;;;;4.70;3.05;;;;;;;;;;5090807;28;20662;-51
2022/04/17 06:50:42;;;;;;;5.60;3.20;;;;;;;;;;5069543;28;20036;-53
2022/04/17 06:53:08;;;;;;;4.15;3.03;;;;;;;;;;5063546;28;20471;-53
2022/04/17 06:55:34;;;;;;;4.07;2.90;;;;;;;;;;5058406;28;20070;-50
2022/04/17 06:58:01;;;;;;;5.93;2.90;;;;;;;;;;5062111;28;20096;-51
2022/04/17 07:00:26;;;;;;;5.00;3.35;;;;;;;;;;5063185;28;20033;-53
2022/04/17 07:02:52;;;;;;;5.07;3.20;;;;;;;;;;5069291;28;21866;-53
2022/04/17 07:05:18;;;;;;;3.85;2.72;;;;;;;;;;5056459;28;20120;-53
2022/04/17 07:07:44;;;;;;;5.35;2.65;;;;;;;;;;5066514;28;20032;-53
2022/04/17 07:10:11;;;;;;;4.22;2.60;;;;;;;;;;5063894;28;20139;-53
2022/04/17 07:12:37;;;;;;;3.60;2.50;;;;;;;;;;5084800;28;20051;-54
2022/04/17 07:15:06;;;;;;;4.70;2.10;;;;;;;;;;5077100;28;20048;-54
2022/04/17 07:17:35;;;;;;;5.63;2.25;;;;;;;;;;5079091;28;20024;-52
2022/04/17 07:20:01;;;;;;;4.88;2.08;;;;;;;;;;5068085;28;20607;-52
2022/04/17 07:22:27;;;;;;;3.50;2.00;;;;;;;;;;5064415;28;20028;-53
2022/04/17 07:24:54;;;;;;;3.30;1.83;;;;;;;;;;5068260;28;20039;-53
2022/04/17 07:27:20;;;;;;;2.42;1.73;;;;;;;;;;5058989;28;20496;-54
2022/04/17 07:29:46;;;;;;;3.92;1.80;;;;;;;;;;5076581;28;20024;-53
2022/04/17 07:32:12;;;;;;;2.97;1.33;;;;;;;;;;5076769;28;20034;-53
2022/04/17 07:34:38;;;;;;;1.52;1.08;;;;;;;;;;5081863;28;20102;-54
2022/04/17 07:37:06;;;;;;;2.78;1.40;;;;;;;;;;5074080;28;20029;-53
2022/04/17 07:39:32;;;;;;;1.35;1.08;;;;;;;;;;5074328;28;20036;-54
2022/04/17 07:41:59;;;;;;;2.08;1.23;;;;;;;;;;5063471;28;20058;-55
2022/04/17 07:44:27;;;;;;;3.40;1.33;;;;;;;;;;5057204;28;20138;-55
2022/04/17 07:46:53;;;;;;;4.40;1.42;;;;;;;;;;5075113;28;20017;-54
2022/04/17 07:49:19;;;;;;;2.40;1.67;;;;;;;;;;5067813;28;20028;-52
2022/04/17 07:51:44;;;;;;;3.97;2.00;;;;;;;;;;5068004;28;20150;-55
2022/04/17 07:54:10;;;;;;;3.30;1.80;;;;;;;;;;5063094;28;20037;-54
2022/04/17 07:56:37;;;;;;;2.63;1.70;;;;;;;;;;5062082;28;20036;-54
2022/04/17 07:59:04;;;;;;;5.43;2.00;;;;;;;;;;5086411;28;20032;-54
2022/04/17 08:01:33;;;;;;;3.28;1.85;;;;;;;;;;5064726;28;20028;-54
2022/04/17 08:03:59;;;;;;;2.45;1.83;;;;;;;;;;5055991;28;20060;-54
2022/04/17 08:06:25;;;;;;;4.47;2.10;;;;;;;;;;5064474;28;20032;-54
2022/04/17 08:08:52;;;;;;;2.85;1.80;;;;;;;;;;5080572;28;20672;-54
2022/04/17 08:11:18;;;;;;;3.30;2.15;;;;;;;;;;5063628;28;20064;-54
2022/04/17 08:13:46;;;;;;;2.63;1.65;;;;;;;;;;5052902;28;20028;-52
2022/04/17 08:16:12;;;;;;;2.40;1.75;;;;;;;;;;5071751;28;20055;-53
2022/04/17 08:18:38;;;;;;;3.80;2.05;;;;;;;;;;5055785;28;20032;-53
2022/04/17 08:21:05;;;;;;;3.85;1.80;;;;;;;;;;5061069;28;20033;-53
2022/04/17 08:23:31;;;;;;;3.80;1.77;;;;;;;;;;5070151;28;20020;-54
2022/04/17 08:25:57;;;;;;;3.15;1.77;;;;;;;;;;5066772;28;20380;-55
2022/04/17 08:28:23;;;;;;;2.47;1.52;;;;;;;;;;5081611;28;20036;-54
2022/04/17 08:30:49;;;;;;;5.47;1.95;;;;;;;;;;5076306;28;20377;-53
2022/04/17 08:33:16;;;;;;;3.15;1.40;;;;;;;;;;5062694;28;20037;-55
2022/04/17 08:35:42;;;;;;;3.00;1.52;;;;;;;;;;5070396;28;20391;-54
2022/04/17 08:38:09;;;;;;;3.45;2.17;;;;;;;;;;5065403;28;20012;-54
2022/04/17 08:40:38;;;;;;;2.92;1.50;;;;;;;;;;5054053;28;20500;-54
2022/04/17 08:43:07;;;;;;;4.63;1.52;;;;;;;;;;5044703;28;20748;-54
2022/04/17 08:45:33;;;;;;;3.95;2.05;;;;;;;;;;5062031;28;20033;-55
2022/04/17 08:47:59;;;;;;;3.75;1.90;;;;;;;;;;5065513;28;20024;-54
2022/04/17 08:50:25;;;;;;;2.75;1.52;;;;;;;;;;5061205;28;20059;-53
2022/04/17 08:52:53;;;;;;;3.03;1.45;;;;;;;;;;5049519;28;20083;-57
2022/04/17 08:55:19;;;;;;;3.05;1.35;;;;;;;;;;5025955;28;20802;-55
2022/04/17 08:57:45;;;;;;;3.65;1.63;;;;;;;;;;5042470;28;20523;-55
2022/04/17 09:00:14;;;;;;;2.90;1.55;;;;;;;;;;5048687;28;20040;-55
2022/04/17 09:02:40;;;;;;;3.40;1.48;;;;;;;;;;5063285;28;20388;-54
2022/04/17 09:05:07;;;;;;;4.85;1.50;;;;;;;;;;5065840;28;20089;-55
2022/04/17 09:07:40;;;;;;;2.60;1.55;;;;;;;;;;5067077;28;20032;-55
2022/04/17 09:10:07;;;;;;;3.20;1.48;;;;;;;;;;5069806;28;20491;-54
2022/04/17 09:12:33;;;;;;;2.78;1.58;;;;;;;;;;5049299;28;20029;-53
2022/04/17 09:14:59;;;;;;;3.05;1.38;;;;;;;;;;5060335;28;20040;-55
2022/04/17 09:17:34;;;;;;;3.05;1.35;;;;;;;;;;5071809;28;20185;-53
2022/04/17 09:20:01;;;;;;;2.08;1.25;;;;;;;;;;5069911;28;20060;-55
2022/04/17 09:22:45;;;;;;;3.47;1.27;;;;;;;;;;5055380;28;20108;-54
2022/04/17 09:25:12;;;;;;;2.00;1.23;;;;;;;;;;5062047;28;20027;-54
2022/04/17 09:27:42;;;;;;;3.00;1.40;;;;;;;;;;5074459;28;20107;-54
2022/04/17 09:30:24;;;;;;;2.63;1.15;;;;;;;;;;5063808;28;20385;-55
2022/04/17 09:32:53;;;;;;;3.03;1.38;;;;;;;;;;5065216;28;20020;-55
2022/04/17 09:35:22;;;;;;;2.15;1.13;;;;;;;;;;5062610;28;20438;-55
2022/04/17 09:37:48;;;;;;;3.00;1.30;;;;;;;;;;5064846;28;20055;-54
2022/04/17 09:40:19;;;;;;;2.28;1.38;;;;;;;;;;5072479;28;20063;-55
2022/04/17 09:42:47;;;;;;;3.13;1.30;;;;;;;;;;5064933;28;20107;-53
2022/04/17 09:45:13;;;;;;;2.40;1.02;;;;;;;;;;5069281;28;20125;-54
2022/04/17 09:47:39;;;;;;;2.65;1.02;;;;;;;;;;5054453;28;20025;-53
2022/04/17 09:50:09;;;;;;;3.35;0.88;;;;;;;;;;5063602;28;20514;-55
2022/04/17 09:52:38;;;;;;;2.63;0.98;;;;;;;;;;5063180;28;20542;-55
2022/04/17 09:55:04;;;;;;;3.00;1.23;;;;;;;;;;5069041;28;20024;-55
2022/04/17 09:57:30;;;;;;;2.85;1.13;;;;;;;;;;5055564;28;20021;-54
2022/04/17 09:59:57;;;;;;;1.73;1.08;;;;;;;;;;5061773;28;20078;-55
2022/04/17 10:02:24;;;;;;;2.33;1.05;;;;;;;;;;5059824;28;20544;-55
2022/04/17 10:04:50;;;;;;;2.10;1.13;;;;;;;;;;5050364;28;20032;-54
2022/04/17 10:07:18;;;;;;;2.67;1.25;;;;;;;;;;5054796;28;20037;-55
2022/04/17 10:09:45;;;;;;;3.15;1.00;;;;;;;;;;5073682;28;20082;-55
2022/04/17 10:12:14;;;;;;;1.48;0.85;;;;;;;;;;5080633;28;20024;-55
2022/04/17 10:14:41;;;;;;;2.15;1.10;;;;;;;;;;5090989;28;20051;-55
2022/04/17 10:17:09;;;;;;;2.78;1.00;;;;;;;;;;5090727;28;20024;-56
2022/04/17 10:19:36;;;;;;;1.95;0.80;;;;;;;;;;5086917;28;20028;-54
2022/04/17 10:22:03;;;;;;;2.03;0.85;;;;;;;;;;5091056;28;20479;-54
2022/04/17 10:24:29;;;;;;;3.92;1.00;;;;;;;;;;5091075;28;20507;-54
2022/04/17 10:26:55;;;;;;;1.77;0.80;;;;;;;;;;5091298;28;20501;-55
2022/04/17 10:29:30;;;;;;;2.58;1.08;;;;;;;;;;5090473;28;20024;-55
2022/04/17 10:32:15;;;;;;;1.88;0.80;;;;;;;;;;5090571;28;20024;-54
2022/04/17 10:34:51;;;;;;;3.50;1.25;;;;;;;;;;5090841;28;20606;-53
2022/04/17 10:37:24;;;;;;;2.30;1.17;;;;;;;;;;5090963;28;20490;-55
2022/04/17 10:39:51;;;;;;;3.38;1.20;;;;;;;;;;5090526;28;20032;-55
2022/04/17 10:42:17;;;;;;;1.92;0.90;;;;;;;;;;5081049;28;20028;-56
2022/04/17 10:45:01;;;;;;;1.92;1.00;;;;;;;;;;5090829;28;20020;-54
2022/04/17 10:47:27;;;;;;;2.05;0.82;;;;;;;;;;5077613;28;20046;-56
2022/04/17 10:49:54;;;;;;;2.00;1.10;;;;;;;;;;5083345;28;20412;-56
2022/04/17 10:52:32;;;;;;;2.33;0.90;;;;;;;;;;5072635;28;20438;-55
2022/04/17 10:55:09;;;;;;;2.28;0.88;;;;;;;;;;5090880;28;20024;-55
2022/04/17 10:57:45;;;;;;;3.00;0.90;;;;;;;;;;5075425;28;20024;-55
2022/04/17 11:00:28;;;;;;;2.95;1.10;;;;;;;;;;5085278;28;20096;-55
2022/04/17 11:02:55;;;;;;;1.10;0.57;;;;;;;;;;5068161;28;20024;-55
2022/04/17 11:06:08;;;;;;;2.15;0.73;;;;;;;;;;5090567;28;20024;-56
2022/04/17 11:08:23;;;;;;;1.55;0.80;;;;;;;;;;5090245;28;20492;-55
2022/04/17 11:10:52;;;;;;;1.80;0.80;;;;;;;;;;5089441;28;20548;-55
2022/04/17 11:13:18;;;;;;;3.25;0.60;;;;;;;;;;5090267;28;20099;-54
2022/04/17 11:15:49;;;;;;;1.95;0.82;;;;;;;;;;5090558;28;20073;-56
2022/04/17 11:18:20;;;;;;;1.90;1.02;;;;;;;;;;5081955;28;20024;-55
2022/04/17 11:20:47;;;;;;;1.98;0.80;;;;;;;;;;5090329;28;20032;-55
2022/04/17 11:23:13;;;;;;;3.33;1.00;;;;;;;;;;5090450;28;20045;-55
2022/04/17 11:25:50;;;;;;;3.00;0.70;;;;;;;;;;5090528;28;20093;-56
2022/04/17 11:28:34;;;;;;;0.85;0.50;;;;;;;;;;5090104;28;20494;-55
2022/04/17 11:31:00;;;;;;;1.13;0.52;;;;;;;;;;5090124;28;20054;-55
2022/04/17 11:33:26;;;;;;;1.63;0.70;;;;;;;;;;5090440;28;20024;-56
2022/04/17 11:35:52;;;;;;;1.13;0.70;;;;;;;;;;5090231;28;20032;-55
2022/04/17 11:38:18;;;;;;;1.15;0.57;;;;;;;;;;5090260;28;20017;-56
2022/04/17 11:40:48;;;;;;;0.93;0.50;;;;;;;;;;5082612;28;20051;-56
2022/04/17 11:43:15;;;;;;;1.30;0.60;;;;;;;;;;5089758;28;20061;-56
2022/04/17 11:45:42;;;;;;;1.23;0.50;;;;;;;;;;5089854;28;20043;-55
2022/04/17 11:48:10;;;;;;;1.52;0.50;;;;;;;;;;5079863;28;20028;-54
2022/04/17 11:50:36;;;;;;;0.82;0.30;;;;;;;;;;5069066;28;20053;-55
2022/04/17 11:53:04;;;;;;;0.80;0.30;;;;;;;;;;5081645;28;20016;-54
2022/04/17 11:55:35;;;;;;;0.93;0.52;;;;;;;;;;5092170;28;20106;-55
2022/04/17 11:58:02;;;;;;;0.93;0.52;;;;;;;;;;5093403;28;20077;-53
2022/04/17 12:00:28;;;;;;;1.65;0.63;;;;;;;;;;5088363;28;20452;-55
2022/04/17 12:02:58;;;;;;;1.08;0.57;;;;;;;;;;5093585;28;20024;-55
2022/04/17 12:05:25;;;;;;;1.50;0.50;;;;;;;;;;5093279;28;20046;-55
2022/04/17 12:07:58;;;;;;;0.82;0.40;;;;;;;;;;5093631;28;20098;-54
2022/04/17 12:10:24;;;;;;;2.03;0.60;;;;;;;;;;5091760;28;20028;-55
2022/04/17 12:12:51;;;;;;;1.17;0.63;;;;;;;;;;5093165;28;20020;-54
2022/04/17 12:15:17;;;;;;;1.02;0.55;;;;;;;;;;5093155;28;20028;-55
2022/04/17 12:17:43;;;;;;;0.93;0.40;;;;;;;;;;5093541;28;20538;-55
2022/04/17 12:20:13;;;;;;;1.10;0.40;;;;;;;;;;5092932;28;20438;-55
2022/04/17 12:22:39;;;;;;;1.08;0.50;;;;;;;;;;5075060;28;20028;-55
2022/04/17 12:25:15;;;;;;;1.10;0.57;;;;;;;;;;5093033;28;20032;-54
2022/04/17 12:27:41;;;;;;;1.70;0.60;;;;;;;;;;5093243;28;20442;-55
2022/04/17 12:30:07;;;;;;;0.82;0.40;;;;;;;;;;5092356;28;20061;-55
2022/04/17 12:32:42;;;;;;;0.43;0.20;;;;;;;;;;5093068;28;20024;-55
2022/04/17 12:35:13;;;;;;;1.48;0.28;;;;;;;;;;5092965;28;20038;-55
2022/04/17 12:37:39;;;;;;;1.40;0.40;;;;;;;;;;5093096;28;20031;-55
2022/04/17 12:40:21;;;;;;;1.40;0.60;;;;;;;;;;5090368;28;20129;-55
2022/04/17 12:42:47;;;;;;;1.03;0.50;;;;;;;;;;5087627;28;20372;-55
2022/04/17 12:45:26;;;;;;;0.60;0.30;;;;;;;;;;5092913;28;20024;-55
2022/04/17 12:48:03;;;;;;;2.88;0.70;;;;;;;;;;5079418;28;20729;-55
2022/04/17 12:50:29;;;;;;;0.77;0.40;;;;;;;;;;5069200;28;20053;-54
2022/04/17 12:52:59;;;;;;;0.75;0.25;;;;;;;;;;5061068;28;20039;-55
2022/04/17 12:55:35;;;;;;;0.65;0.38;;;;;;;;;;5074383;28;20070;-56
2022/04/17 12:58:02;;;;;;;1.02;0.50;;;;;;;;;;5074097;28;20028;-54
2022/04/17 13:00:29;;;;;;;0.75;0.40;;;;;;;;;;5068951;28;20582;-54
2022/04/17 13:03:09;;;;;;;0.45;0.20;;;;;;;;;;5092402;28;20439;-55
2022/04/17 13:05:35;;;;;;;0.70;0.35;;;;;;;;;;5092044;28;20096;-55
2022/04/17 13:08:05;;;;;;;0.57;0.30;;;;;;;;;;5092619;28;20467;-55
2022/04/17 13:10:31;;;;;;;1.85;0.30;;;;;;;;;;5090940;28;20494;-55
2022/04/17 13:12:57;;;;;;;0.63;0.30;;;;;;;;;;5091961;28;20032;-55
2022/04/17 13:15:29;;;;;;;0.57;0.30;;;;;;;;;;5092030;28;20032;-55
2022/04/17 13:17:55;;;;;;;2.13;0.47;;;;;;;;;;5092064;28;20443;-56
2022/04/17 13:20:23;;;;;;;1.30;0.40;;;;;;;;;;5091564;28;20036;-56
2022/04/17 13:22:49;;;;;;;0.77;0.32;;;;;;;;;;5092213;28;20433;-54
2022/04/17 13:25:16;;;;;;;0.80;0.30;;;;;;;;;;5091857;28;20063;-56
2022/04/17 13:27:43;;;;;;;1.40;0.40;;;;;;;;;;5092176;28;20035;-55
2022/04/17 13:30:09;;;;;;;0.73;0.40;;;;;;;;;;5091190;28;20016;-56
2022/04/17 13:32:35;;;;;;;0.80;0.52;;;;;;;;;;5091673;28;20023;-55
2022/04/17 13:35:01;;;;;;;0.68;0.40;;;;;;;;;;5091697;28;20429;-55
2022/04/17 13:40:12;;;;;;;2.65;0.43;;;;;;;;;;5062703;28;20085;-55
2022/04/17 13:42:38;;;;;;;2.58;0.50;;;;;;;;;;5085449;28;20116;-55
2022/04/17 13:45:05;;;;;;;0.70;0.40;;;;;;;;;;5091084;28;20403;-52
2022/04/17 13:47:31;;;;;;;1.00;0.40;;;;;;;;;;5078044;28;20021;-56
2022/04/17 13:49:57;;;;;;;0.57;0.20;;;;;;;;;;5077095;28;20047;-56
2022/04/17 13:52:25;;;;;;;0.95;0.60;;;;;;;;;;5069170;28;20074;-55
2022/04/17 13:54:51;;;;;;;1.17;0.60;;;;;;;;;;5091676;28;20024;-56
2022/04/17 13:57:17;;;;;;;0.40;0.28;;;;;;;;;;5089548;28;20024;-55
2022/04/17 13:59:43;;;;;;;0.68;0.30;;;;;;;;;;5085565;28;20079;-56
2022/04/17 14:02:09;;;;;;;1.77;0.32;;;;;;;;;;5091485;28;20044;-56
2022/04/17 14:04:35;;;;;;;0.40;0.22;;;;;;;;;;5091443;28;20055;-55
2022/04/17 14:07:02;;;;;;;1.38;0.50;;;;;;;;;;5091341;28;20020;-55
2022/04/17 14:09:32;;;;;;;1.38;0.70;;;;;;;;;;5091196;28;20052;-56
2022/04/17 14:11:58;;;;;;;1.13;0.40;;;;;;;;;;5089313;28;20044;-55
2022/04/17 14:14:24;;;;;;;0.70;0.22;;;;;;;;;;5091031;28;20458;-56
2022/04/17 14:16:50;;;;;;;0.65;0.35;;;;;;;;;;5091429;28;20473;-56
2022/04/17 14:19:16;;;;;;;1.52;0.50;;;;;;;;;;5091185;28;20027;-54
2022/04/17 14:21:42;;;;;;;1.33;0.60;;;;;;;;;;5090520;28;20079;-55
2022/04/17 14:24:08;;;;;;;0.60;0.35;;;;;;;;;;5091417;28;20065;-56
2022/04/17 14:26:34;;;;;;;1.17;0.50;;;;;;;;;;5090741;28;20016;-55
2022/04/17 14:29:00;;;;;;;0.85;0.40;;;;;;;;;;5090892;28;20098;-56
2022/04/17 14:31:26;;;;;;;0.80;0.40;;;;;;;;;;5090676;28;20035;-55
2022/04/17 14:33:55;;;;;;;0.60;0.20;;;;;;;;;;5091078;28;20062;-56
2022/04/17 14:36:21;;;;;;;0.93;0.60;;;;;;;;;;5090941;28;20034;-56
2022/04/17 14:38:48;;;;;;;0.77;0.55;;;;;;;;;;5073011;28;20024;-55
2022/04/17 14:41:14;;;;;;;0.98;0.60;;;;;;;;;;5082166;28;20040;-55
2022/04/17 14:43:40;;;;;;;1.85;0.47;;;;;;;;;;5090570;28;20463;-55
2022/04/17 14:46:06;;;;;;;1.35;0.40;;;;;;;;;;5086905;28;20470;-56
2022/04/17 14:48:32;;;;;;;1.00;0.32;;;;;;;;;;5081566;28;20021;-55
2022/04/17 14:51:00;;;;;;;0.98;0.45;;;;;;;;;;5062801;28;20055;-56
2022/04/17 14:53:27;;;;;;;1.20;0.65;;;;;;;;;;5081710;28;20475;-55
2022/04/17 14:55:53;;;;;;;1.05;0.50;;;;;;;;;;5088725;28;20032;-56
2022/04/17 14:58:19;;;;;;;0.82;0.45;;;;;;;;;;5087982;28;20024;-55
2022/04/17 15:00:45;;;;;;;1.55;0.57;;;;;;;;;;5088053;28;20027;-56
2022/04/17 15:03:11;;;;;;;1.73;0.80;;;;;;;;;;5090830;28;20016;-56
2022/04/17 15:05:36;;;;;;;1.00;0.63;;;;;;;;;;5090594;28;20035;-56
2022/04/17 15:08:03;;;;;;;1.38;0.82;;;;;;;;;;5090782;28;20028;-56